createdAt,value
2022-10-04T00:02:14.788Z,12.50
2022-10-04T00:04:40.719Z,12.36
2022-10-04T00:07:06.869Z,12.32
2022-10-04T00:09:32.803Z,12.61
2022-10-04T00:11:58.736Z,12.74
2022-10-04T00:14:24.691Z,12.68
2022-10-04T00:16:50.675Z,12.50
2022-10-04T00:19:16.609Z,12.59
2022-10-04T00:21:42.747Z,12.50
2022-10-04T00:24:09.774Z,12.37
2022-10-04T00:26:35.685Z,12.35
2022-10-04T00:29:01.655Z,12.43
2022-10-04T00:31:27.636Z,12.39
2022-10-04T00:33:53.637Z,12.13
2022-10-04T00:36:19.558Z,12.20
2022-10-04T00:38:45.482Z,12.32
2022-10-04T00:41:12.062Z,12.38
2022-10-04T00:43:38.012Z,12.41
2022-10-04T00:46:03.946Z,12.45
2022-10-04T00:48:31.563Z,12.08
2022-10-04T00:50:57.751Z,12.18
2022-10-04T00:53:24.303Z,12.19
2022-10-04T00:55:50.228Z,12.46
2022-10-04T00:58:16.142Z,12.53
2022-10-04T01:00:42.520Z,12.46
2022-10-04T01:03:08.484Z,12.49
2022-10-04T01:05:35.041Z,12.49
2022-10-04T01:08:00.973Z,12.42
2022-10-04T01:10:27.470Z,12.24
2022-10-04T01:12:53.390Z,12.19
2022-10-04T01:15:19.327Z,12.11
2022-10-04T01:17:47.258Z,12.17
2022-10-04T01:20:13.201Z,12.09
2022-10-04T01:22:39.124Z,11.79
2022-10-04T01:25:05.355Z,12.03
2022-10-04T01:27:32.794Z,12.26
2022-10-04T01:29:59.045Z,12.14
2022-10-04T01:32:25.618Z,12.07
2022-10-04T01:34:51.883Z,12.10
2022-10-04T01:37:17.946Z,11.94
2022-10-04T03:16:04.428Z,11.20
2022-10-04T03:18:30.417Z,10.79
2022-10-04T03:20:56.345Z,10.92
2022-10-04T03:23:22.285Z,11.10
2022-10-04T03:25:48.186Z,11.01
2022-10-04T03:28:14.957Z,10.77
2022-10-04T03:30:41.791Z,10.99
2022-10-04T03:33:08.400Z,11.13
2022-10-04T03:35:34.321Z,11.27
2022-10-04T03:38:00.241Z,11.29
2022-10-04T03:40:27.100Z,11.33
2022-10-04T03:42:53.674Z,11.49
2022-10-04T03:45:19.605Z,11.45
2022-10-04T03:47:45.500Z,11.43
2022-10-04T03:50:11.736Z,11.33
2022-10-04T03:52:37.658Z,11.29
2022-10-04T03:55:03.588Z,11.20
2022-10-04T03:57:29.511Z,11.07
2022-10-04T03:59:56.239Z,11.02
2022-10-04T04:02:22.242Z,10.86
2022-10-04T04:04:48.878Z,10.90
2022-10-04T04:07:14.824Z,11.04
2022-10-04T04:09:40.745Z,11.04
2022-10-04T04:12:06.663Z,10.92
2022-10-04T04:14:33.362Z,10.82
2022-10-04T04:16:59.512Z,10.96
2022-10-04T04:19:26.227Z,11.16
2022-10-04T04:21:52.427Z,11.05
2022-10-04T04:24:19.143Z,11.02
2022-10-04T04:26:45.037Z,11.16
2022-10-04T04:29:11.793Z,11.16
2022-10-04T04:31:37.779Z,11.04
2022-10-04T04:34:03.728Z,11.10
2022-10-04T04:36:29.695Z,11.12
2022-10-04T04:38:55.613Z,11.02
2022-10-04T04:41:21.542Z,10.98
2022-10-04T04:43:48.429Z,11.01
2022-10-04T04:46:29.456Z,11.03
2022-10-04T04:48:55.467Z,10.99
2022-10-04T04:51:21.429Z,10.85
2022-10-04T04:53:47.427Z,10.65
2022-10-04T04:56:17.407Z,10.89
2022-10-04T04:58:44.003Z,10.86
2022-10-04T05:01:09.968Z,11.11
2022-10-04T05:03:35.892Z,11.00
2022-10-04T05:06:01.821Z,10.91
2022-10-04T05:08:27.747Z,11.06
2022-10-04T05:10:56.600Z,11.03
2022-10-04T05:13:23.270Z,11.23
2022-10-04T05:15:49.193Z,11.18
2022-10-04T05:18:15.086Z,11.38
2022-10-04T05:20:40.988Z,11.34
2022-10-04T05:23:07.158Z,11.38
2022-10-04T05:25:33.763Z,11.57
2022-10-04T05:27:59.744Z,11.75
2022-10-04T05:30:26.446Z,11.92
2022-10-04T05:32:52.394Z,12.05
2022-10-04T05:35:18.337Z,12.12
2022-10-04T05:37:44.258Z,12.13
2022-10-04T05:40:11.073Z,12.28
2022-10-04T05:42:36.984Z,12.33
2022-10-04T05:45:03.080Z,12.30
2022-10-04T05:47:29.078Z,12.30
2022-10-04T05:49:54.984Z,12.35
2022-10-04T05:52:21.104Z,12.48
2022-10-04T05:54:47.298Z,12.30
2022-10-04T05:57:13.483Z,12.48
2022-10-04T05:59:39.765Z,12.45
2022-10-04T06:02:07.376Z,12.14
2022-10-04T06:04:33.616Z,12.40
2022-10-04T06:06:59.827Z,12.37
2022-10-04T08:14:22.458Z,17.06
2022-10-04T08:16:48.356Z,17.28
2022-10-04T08:19:15.198Z,17.41
2022-10-04T08:21:41.113Z,17.55
2022-10-04T08:24:07.004Z,17.88
2022-10-04T08:26:32.931Z,18.16
2022-10-04T08:28:58.877Z,18.34
2022-10-04T08:31:24.893Z,18.42
2022-10-04T08:33:50.947Z,18.40
2022-10-04T08:36:16.867Z,18.17
2022-10-04T08:38:43.693Z,18.45
2022-10-04T08:41:09.606Z,18.79
2022-10-04T08:43:36.409Z,18.70
2022-10-04T08:46:02.346Z,18.62
2022-10-04T08:48:28.384Z,19.02
2022-10-04T08:50:56.853Z,19.36
2022-10-04T08:53:22.799Z,19.49
2022-10-04T08:55:48.703Z,19.84
2022-10-04T08:58:14.617Z,19.94
2022-10-04T09:00:40.603Z,20.12
2022-10-04T09:03:07.197Z,20.27
2022-10-04T09:05:33.180Z,20.34
2022-10-04T09:07:59.769Z,20.27
2022-10-04T09:10:25.666Z,20.48
2022-10-04T09:12:51.597Z,20.45
2022-10-04T09:15:18.280Z,20.26
2022-10-04T09:17:44.809Z,20.53
2022-10-04T09:20:36.766Z,20.91
2022-10-04T09:22:56.630Z,21.15
2022-10-04T09:25:22.553Z,21.20
2022-10-04T09:27:56.348Z,21.34
2022-10-04T09:30:22.393Z,21.11
2022-10-04T09:32:48.312Z,20.78
2022-10-04T09:35:14.232Z,20.66
2022-10-04T09:37:40.162Z,20.73
2022-10-04T09:40:06.521Z,20.16
2022-10-04T09:42:32.447Z,20.48
2022-10-04T09:44:58.405Z,20.55
2022-10-04T09:47:24.970Z,21.37
2022-10-04T09:49:50.943Z,21.45
2022-10-04T09:52:16.847Z,21.90
2022-10-04T09:54:44.502Z,22.28
2022-10-04T09:57:10.488Z,22.24
2022-10-04T09:59:36.409Z,22.61
2022-10-04T10:02:03.308Z,22.74
2022-10-04T10:04:29.241Z,22.53
2022-10-04T10:06:55.228Z,22.96
2022-10-04T10:09:21.405Z,23.26
2022-10-04T10:11:47.329Z,23.26
2022-10-04T10:14:13.301Z,22.75
2022-10-04T10:16:39.239Z,22.94
2022-10-04T10:19:05.271Z,23.28
2022-10-04T10:21:31.218Z,23.17
2022-10-04T10:23:57.172Z,23.56
2022-10-04T10:26:23.961Z,23.94
2022-10-04T10:28:49.893Z,22.75
2022-10-04T10:31:16.610Z,22.60
2022-10-04T10:33:42.575Z,23.30
2022-10-04T10:36:08.497Z,23.86
2022-10-04T10:38:35.334Z,23.71
2022-10-04T10:41:02.808Z,23.63
2022-10-04T10:43:28.994Z,23.93
2022-10-04T10:45:55.242Z,24.52
2022-10-04T10:48:21.428Z,24.58
2022-10-04T10:50:49.009Z,23.24
2022-10-04T10:53:16.414Z,23.48
2022-10-04T10:55:42.723Z,23.95
2022-10-04T10:58:08.941Z,24.29
2022-10-04T11:00:35.139Z,24.20
2022-10-04T11:03:12.657Z,23.91
2022-10-04T11:05:39.509Z,23.33
2022-10-04T13:15:06.953Z,26.18
2022-10-04T13:17:36.212Z,26.90
2022-10-04T13:20:03.398Z,27.04
2022-10-04T13:22:54.919Z,27.04
2022-10-04T13:25:15.262Z,27.13
2022-10-04T13:27:41.176Z,27.09
2022-10-04T13:30:07.127Z,26.68
2022-10-04T13:32:33.026Z,26.05
2022-10-04T13:34:59.017Z,25.27
2022-10-04T13:37:24.979Z,24.42
2022-10-04T13:39:51.112Z,24.14
2022-10-04T13:42:17.041Z,23.73
2022-10-04T13:44:43.654Z,24.55
2022-10-04T13:47:09.581Z,25.79
2022-10-04T13:49:35.526Z,26.25
2022-10-04T13:52:01.476Z,25.61
2022-10-04T13:54:28.227Z,25.18
2022-10-04T13:56:54.184Z,25.53
2022-10-04T13:59:20.824Z,25.61
2022-10-04T14:01:47.147Z,25.67
2022-10-04T14:04:13.287Z,25.26
2022-10-04T14:06:39.196Z,25.89
2022-10-04T14:09:05.096Z,26.59
2022-10-04T14:11:31.917Z,26.76
2022-10-04T14:13:57.829Z,26.21
2022-10-04T14:16:23.832Z,26.42
2022-10-04T14:18:49.772Z,26.55
2022-10-04T14:21:19.370Z,26.05
2022-10-04T14:23:46.539Z,25.19
2022-10-04T14:26:12.489Z,25.59
2022-10-04T14:28:38.601Z,26.33
2022-10-04T14:31:04.609Z,25.75
2022-10-04T14:33:30.540Z,25.92
2022-10-04T14:35:56.452Z,26.34
2022-10-04T14:38:26.642Z,26.39
2022-10-04T14:40:52.854Z,26.62
2022-10-04T14:43:18.788Z,26.70
2022-10-04T14:45:44.770Z,26.66
2022-10-04T14:48:11.371Z,26.95
2022-10-04T14:50:37.369Z,27.07
2022-10-04T14:53:03.282Z,26.11
2022-10-04T14:55:30.173Z,25.77
2022-10-04T14:57:56.124Z,26.03
2022-10-04T15:00:22.800Z,26.16
2022-10-04T15:02:49.604Z,25.65
2022-10-04T15:05:15.541Z,25.70
2022-10-04T15:07:41.960Z,25.68
2022-10-04T15:10:08.285Z,25.38
2022-10-04T15:12:58.568Z,25.53
2022-10-04T15:15:20.178Z,25.08
2022-10-04T15:17:46.207Z,25.36
2022-10-04T15:20:12.558Z,25.56
2022-10-04T15:22:38.588Z,25.46
2022-10-04T15:25:04.687Z,25.44
2022-10-04T15:27:30.694Z,25.42
2022-10-04T15:29:57.459Z,25.52
2022-10-04T15:32:23.831Z,25.63
2022-10-04T15:34:49.808Z,25.61
2022-10-04T15:37:16.011Z,25.60
2022-10-04T15:39:41.952Z,25.42
2022-10-04T15:42:07.921Z,25.23
2022-10-04T15:44:33.918Z,25.09
2022-10-04T15:46:59.854Z,24.96
2022-10-04T15:49:25.835Z,24.73
2022-10-04T15:51:51.835Z,24.43
2022-10-04T15:54:18.108Z,24.24
2022-10-04T15:56:44.582Z,24.08
2022-10-04T15:59:12.533Z,23.80
2022-10-04T16:01:39.130Z,23.71
2022-10-04T16:04:09.902Z,23.56
2022-10-04T16:06:36.431Z,23.28
2022-10-04T16:09:02.448Z,23.04
2022-10-04T18:06:18.753Z,18.02
2022-10-04T18:08:44.800Z,17.93
2022-10-04T18:11:10.708Z,17.91
2022-10-04T18:13:38.927Z,17.84
2022-10-04T18:16:04.930Z,17.94
2022-10-04T18:18:31.662Z,17.95
2022-10-04T18:20:57.589Z,17.86
2022-10-04T18:23:23.512Z,17.70
2022-10-04T18:25:49.451Z,17.73
2022-10-04T18:28:15.442Z,17.72
2022-10-04T18:30:41.377Z,17.75
2022-10-04T18:33:07.644Z,17.76
2022-10-04T18:35:33.580Z,17.65
2022-10-04T18:37:59.518Z,17.69
2022-10-04T18:40:25.514Z,17.63
2022-10-04T18:42:51.455Z,17.41
2022-10-04T18:45:18.237Z,17.19
2022-10-04T18:47:44.180Z,17.28
2022-10-04T18:50:10.132Z,17.24
2022-10-04T18:52:36.066Z,17.11
2022-10-04T18:55:02.018Z,17.04
2022-10-04T18:57:27.959Z,17.07
2022-10-04T18:59:53.907Z,16.85
2022-10-04T19:02:19.896Z,16.84
2022-10-04T19:04:46.483Z,16.78
2022-10-04T19:07:12.417Z,16.79
2022-10-04T19:09:38.375Z,16.78
2022-10-04T19:12:04.304Z,16.74
2022-10-04T19:14:30.250Z,16.75
2022-10-04T19:16:56.160Z,16.74
2022-10-04T19:19:22.163Z,16.72
2022-10-04T19:21:48.090Z,16.70
2022-10-04T19:24:14.019Z,16.66
2022-10-04T19:26:39.951Z,16.60
2022-10-04T19:29:05.862Z,16.70
2022-10-04T19:31:31.872Z,16.62
2022-10-04T19:33:57.829Z,16.46
2022-10-04T19:36:23.769Z,16.46
2022-10-04T19:38:49.671Z,16.43
2022-10-04T19:41:16.332Z,16.35
2022-10-04T19:43:42.989Z,16.25
2022-10-04T19:46:08.951Z,16.31
2022-10-04T19:48:35.235Z,16.23
2022-10-04T19:51:01.591Z,16.13
2022-10-04T19:53:27.530Z,16.21
2022-10-04T19:55:53.465Z,16.15
2022-10-04T19:58:20.398Z,16.02
2022-10-04T20:00:46.356Z,15.99
2022-10-04T20:03:12.353Z,15.89
2022-10-04T20:05:38.276Z,15.92
2022-10-04T20:08:04.179Z,15.78
2022-10-04T20:10:30.525Z,15.87
2022-10-04T20:12:56.461Z,15.65
2022-10-04T20:15:27.331Z,15.73
2022-10-04T20:17:53.616Z,15.82
2022-10-04T20:20:19.518Z,15.73
2022-10-04T20:22:46.138Z,15.66
2022-10-04T20:25:12.614Z,15.62
2022-10-04T20:27:38.542Z,15.34
2022-10-04T20:30:04.771Z,15.46
2022-10-04T20:32:31.442Z,15.46
2022-10-04T20:34:57.391Z,15.48
2022-10-04T20:37:23.314Z,15.49
2022-10-04T20:39:52.219Z,15.47
2022-10-04T20:42:21.768Z,15.40
2022-10-04T20:44:48.015Z,15.34
2022-10-04T20:47:14.243Z,15.28
2022-10-04T20:49:40.429Z,14.99
2022-10-04T20:52:07.848Z,14.92
2022-10-04T20:54:34.054Z,14.78
2022-10-04T20:57:01.367Z,14.77
2022-10-04T20:59:27.402Z,14.69
2022-10-04T22:50:33.840Z,13.72
2022-10-04T22:52:59.784Z,13.59
2022-10-04T22:55:25.689Z,13.68
2022-10-04T22:57:51.780Z,13.78
2022-10-04T23:00:17.694Z,13.82
2022-10-04T23:02:43.715Z,13.89
2022-10-04T23:05:09.733Z,13.84
2022-10-04T23:07:38.394Z,13.78
2022-10-04T23:10:04.757Z,13.79
2022-10-04T23:12:30.663Z,13.76
2022-10-04T23:14:56.639Z,13.72
2022-10-04T23:17:23.271Z,13.66
2022-10-04T23:19:49.210Z,13.72
2022-10-04T23:22:15.915Z,13.70
2022-10-04T23:24:41.844Z,13.65
2022-10-04T23:27:07.808Z,13.73
2022-10-04T23:29:33.773Z,13.62
2022-10-04T23:31:59.940Z,13.58
2022-10-04T23:34:26.090Z,13.57
2022-10-04T23:36:52.010Z,13.62
2022-10-04T23:39:17.979Z,13.70
2022-10-04T23:41:44.596Z,13.70
2022-10-04T23:44:10.843Z,13.71
2022-10-04T23:46:36.755Z,13.66
2022-10-04T23:49:02.686Z,13.52
2022-10-04T23:51:28.640Z,13.54
2022-10-04T23:53:54.574Z,13.51
2022-10-04T23:56:20.526Z,13.50
2022-10-04T23:58:46.455Z,13.47
